sensor_id;sensor_type;location;lat;lon;timestamp;pressure;altitude;pressure_sealevel;temperature;humidity
79703;BME280;69172;52.352;5.006;2023-09-07T00:00:21;102015.78;;;21.04;86.65
79703;BME280;69172;52.352;5.006;2023-09-07T00:02:46;102019.63;;;21.13;85.54
79703;BME280;69172;52.352;5.006;2023-09-07T00:05:11;102018.03;;;21.18;85.27
79703;BME280;69172;52.352;5.006;2023-09-07T00:07:39;102005.78;;;21.17;86.05
79703;BME280;69172;52.352;5.006;2023-09-07T00:10:05;102009.16;;;21.13;86.08
79703;BME280;69172;52.352;5.006;2023-09-07T00:12:30;102002.13;;;21.12;86.22
79703;BME280;69172;52.352;5.006;2023-09-07T00:20:06;101993.25;;;21.07;82.51
79703;BME280;69172;52.352;5.006;2023-09-07T00:22:41;101984.63;;;21.10;81.94
79703;BME280;69172;52.352;5.006;2023-09-07T00:25:07;101989.13;;;21.14;81.39
79703;BME280;69172;52.352;5.006;2023-09-07T00:27:33;101992.63;;;21.14;81.89
79703;BME280;69172;52.352;5.006;2023-09-07T00:29:59;101988.13;;;21.10;82.02
79703;BME280;69172;52.352;5.006;2023-09-07T00:32:25;101982.88;;;21.09;82.39
79703;BME280;69172;52.352;5.006;2023-09-07T00:34:50;101987.06;;;21.05;81.91
79703;BME280;69172;52.352;5.006;2023-09-07T00:37:15;101993.03;;;21.01;83.02
79703;BME280;69172;52.352;5.006;2023-09-07T00:39:41;101990.38;;;21.00;81.88
79703;BME280;69172;52.352;5.006;2023-09-07T00:42:06;101988.50;;;20.96;81.59
79703;BME280;69172;52.352;5.006;2023-09-07T00:44:32;101993.69;;;20.94;81.82
79703;BME280;69172;52.352;5.006;2023-09-07T00:46:57;101987.53;;;20.92;81.60
79703;BME280;69172;52.352;5.006;2023-09-07T00:49:23;101986.63;;;20.92;81.40
79703;BME280;69172;52.352;5.006;2023-09-07T00:51:49;101987.56;;;20.94;80.80
79703;BME280;69172;52.352;5.006;2023-09-07T00:54:15;101981.44;;;20.93;80.26
79703;BME280;69172;52.352;5.006;2023-09-07T00:56:41;101991.88;;;20.92;80.99
79703;BME280;69172;52.352;5.006;2023-09-07T00:59:07;101984.84;;;20.91;81.44
79703;BME280;69172;52.352;5.006;2023-09-07T01:01:33;101975.19;;;20.88;81.13
79703;BME280;69172;52.352;5.006;2023-09-07T01:04:00;101983.00;;;20.87;81.77
79703;BME280;69172;52.352;5.006;2023-09-07T01:06:30;101976.81;;;20.85;82.34
79703;BME280;69172;52.352;5.006;2023-09-07T01:08:57;101982.81;;;20.82;82.53
79703;BME280;69172;52.352;5.006;2023-09-07T01:11:25;101974.19;;;20.85;82.90
79703;BME280;69172;52.352;5.006;2023-09-07T01:13:52;101978.44;;;20.81;83.04
79703;BME280;69172;52.352;5.006;2023-09-07T01:16:20;101977.34;;;20.74;83.08
79703;BME280;69172;52.352;5.006;2023-09-07T01:18:46;101976.34;;;20.71;83.84
79703;BME280;69172;52.352;5.006;2023-09-07T01:21:11;101983.28;;;20.69;84.07
79703;BME280;69172;52.352;5.006;2023-09-07T01:23:40;101979.72;;;20.67;84.21
79703;BME280;69172;52.352;5.006;2023-09-07T01:26:07;101983.13;;;20.64;83.95
79703;BME280;69172;52.352;5.006;2023-09-07T01:28:34;101979.50;;;20.61;84.00
79703;BME280;69172;52.352;5.006;2023-09-07T01:30:59;101975.03;;;20.57;84.53
79703;BME280;69172;52.352;5.006;2023-09-07T01:33:26;101978.44;;;20.54;84.69
79703;BME280;69172;52.352;5.006;2023-09-07T01:35:51;101976.69;;;20.55;84.43
79703;BME280;69172;52.352;5.006;2023-09-07T01:38:17;101973.09;;;20.51;84.62
79703;BME280;69172;52.352;5.006;2023-09-07T01:40:42;101969.59;;;20.51;84.72
79703;BME280;69172;52.352;5.006;2023-09-07T01:43:08;101974.81;;;20.51;84.06
79703;BME280;69172;52.352;5.006;2023-09-07T01:45:33;101970.31;;;20.47;85.30
79703;BME280;69172;52.352;5.006;2023-09-07T01:47:59;101977.19;;;20.43;85.72
79703;BME280;69172;52.352;5.006;2023-09-07T01:50:25;101978.81;;;20.40;86.31
79703;BME280;69172;52.352;5.006;2023-09-07T01:52:51;101975.16;;;20.35;86.85
79703;BME280;69172;52.352;5.006;2023-09-07T01:55:16;101976.88;;;20.34;86.46
79703;BME280;69172;52.352;5.006;2023-09-07T01:57:43;101970.72;;;20.32;86.52
79703;BME280;69172;52.352;5.006;2023-09-07T02:00:10;101974.22;;;20.33;85.69
79703;BME280;69172;52.352;5.006;2023-09-07T02:02:35;101970.50;;;20.26;86.23
79703;BME280;69172;52.352;5.006;2023-09-07T02:05:01;101977.44;;;20.26;86.47
79703;BME280;69172;52.352;5.006;2023-09-07T02:07:26;101975.72;;;20.26;86.08
79703;BME280;69172;52.352;5.006;2023-09-07T02:09:52;101973.78;;;20.22;86.86
79703;BME280;69172;52.352;5.006;2023-09-07T02:12:18;101972.94;;;20.22;86.67
79703;BME280;69172;52.352;5.006;2023-09-07T02:14:43;101966.81;;;20.21;87.13
79703;BME280;69172;52.352;5.006;2023-09-07T02:17:08;101967.63;;;20.20;86.62
79703;BME280;69172;52.352;5.006;2023-09-07T02:19:34;101971.81;;;20.15;87.75
79703;BME280;69172;52.352;5.006;2023-09-07T02:22:00;101976.31;;;20.19;87.01
79703;BME280;69172;52.352;5.006;2023-09-07T02:24:26;101973.84;;;20.24;86.34
79703;BME280;69172;52.352;5.006;2023-09-07T02:26:51;101980.69;;;20.20;87.12
79703;BME280;69172;52.352;5.006;2023-09-07T02:29:17;101984.06;;;20.16;88.18
79703;BME280;69172;52.352;5.006;2023-09-07T02:31:42;101991.69;;;20.11;88.21
79703;BME280;69172;52.352;5.006;2023-09-07T02:34:07;101982.00;;;20.07;88.64
79703;BME280;69172;52.352;5.006;2023-09-07T02:36:34;101983.69;;;20.05;89.27
79703;BME280;69172;52.352;5.006;2023-09-07T02:39:02;101991.50;;;20.05;89.35
79703;BME280;69172;52.352;5.006;2023-09-07T02:41:30;101981.88;;;20.04;89.89
79703;BME280;69172;52.352;5.006;2023-09-07T02:43:55;101983.47;;;19.99;90.55
79703;BME280;69172;52.352;5.006;2023-09-07T02:46:22;101980.88;;;20.01;91.03
79703;BME280;69172;52.352;5.006;2023-09-07T02:48:47;101968.59;;;19.98;91.25
79703;BME280;69172;52.352;5.006;2023-09-07T02:51:13;101974.75;;;20.00;91.13
79703;BME280;69172;52.352;5.006;2023-09-07T02:53:39;101977.38;;;20.00;90.98
79703;BME280;69172;52.352;5.006;2023-09-07T02:56:04;101967.72;;;19.98;90.83
79703;BME280;69172;52.352;5.006;2023-09-07T02:58:30;101973.72;;;19.95;91.34
79703;BME280;69172;52.352;5.006;2023-09-07T03:00:56;101977.97;;;19.92;92.03
79703;BME280;69172;52.352;5.006;2023-09-07T03:03:21;101980.50;;;19.90;92.44
79703;BME280;69172;52.352;5.006;2023-09-07T03:05:47;101979.44;;;19.85;92.98
79703;BME280;69172;52.352;5.006;2023-09-07T03:08:12;101978.44;;;19.82;92.41
79703;BME280;69172;52.352;5.006;2023-09-07T03:10:38;101977.47;;;19.78;92.87
79703;BME280;69172;52.352;5.006;2023-09-07T03:13:05;101985.19;;;19.75;93.40
79703;BME280;69172;52.352;5.006;2023-09-07T03:15:31;101985.06;;;19.72;93.14
79703;BME280;69172;52.352;5.006;2023-09-07T03:17:57;101978.06;;;19.71;93.40
79703;BME280;69172;52.352;5.006;2023-09-07T03:20:22;101978.78;;;19.67;92.91
79703;BME280;69172;52.352;5.006;2023-09-07T03:22:48;101981.41;;;19.67;92.47
79703;BME280;69172;52.352;5.006;2023-09-07T03:25:14;101984.78;;;19.65;92.24
79703;BME280;69172;52.352;5.006;2023-09-07T03:27:40;101984.78;;;19.65;92.09
79703;BME280;69172;52.352;5.006;2023-09-07T03:30:06;101976.88;;;19.63;91.61
79703;BME280;69172;52.352;5.006;2023-09-07T03:32:33;101975.06;;;19.60;91.79
79703;BME280;69172;52.352;5.006;2023-09-07T03:35:03;101980.28;;;19.60;90.88
79703;BME280;69172;52.352;5.006;2023-09-07T03:37:30;101976.84;;;19.62;90.49
79703;BME280;69172;52.352;5.006;2023-09-07T03:39:55;101977.75;;;19.62;89.55
79703;BME280;69172;52.352;5.006;2023-09-07T03:42:22;101973.25;;;19.59;89.99
79703;BME280;69172;52.352;5.006;2023-09-07T03:44:47;101982.72;;;19.56;90.01
79703;BME280;69172;52.352;5.006;2023-09-07T03:47:14;101974.91;;;19.56;89.33
79703;BME280;69172;52.352;5.006;2023-09-07T03:49:40;101973.84;;;19.51;90.34
79703;BME280;69172;52.352;5.006;2023-09-07T03:52:06;101971.22;;;19.51;90.25
79703;BME280;69172;52.352;5.006;2023-09-07T03:54:31;101974.63;;;19.48;90.42
79703;BME280;69172;52.352;5.006;2023-09-07T03:56:57;101979.19;;;19.54;90.18
79703;BME280;69172;52.352;5.006;2023-09-07T03:59:22;101975.69;;;19.53;90.84
79703;BME280;69172;52.352;5.006;2023-09-07T04:01:48;101967.66;;;19.49;91.11
79703;BME280;69172;52.352;5.006;2023-09-07T04:04:14;101974.53;;;19.47;91.80
79703;BME280;69172;52.352;5.006;2023-09-07T04:06:40;101973.84;;;19.51;92.33
79703;BME280;69172;52.352;5.006;2023-09-07T04:09:05;101974.63;;;19.48;92.54
79703;BME280;69172;52.352;5.006;2023-09-07T04:11:31;101972.81;;;19.47;93.27
79703;BME280;69172;52.352;5.006;2023-09-07T04:13:56;101973.59;;;19.45;93.52
79703;BME280;69172;52.352;5.006;2023-09-07T04:16:21;101979.59;;;19.42;94.48
79703;BME280;69172;52.352;5.006;2023-09-07T04:18:47;101981.31;;;19.42;96.22
79703;BME280;69172;52.352;5.006;2023-09-07T04:21:12;101975.19;;;19.41;96.86
79703;BME280;69172;52.352;5.006;2023-09-07T04:23:37;101984.81;;;19.42;95.99
79703;BME280;69172;52.352;5.006;2023-09-07T04:26:11;101981.28;;;19.40;95.29
79703;BME280;69172;52.352;5.006;2023-09-07T04:28:38;101975.97;;;19.39;94.80
79703;BME280;69172;52.352;5.006;2023-09-07T04:31:06;101986.22;;;19.34;94.66
79703;BME280;69172;52.352;5.006;2023-09-07T04:33:32;101991.34;;;19.33;94.82
79703;BME280;69172;52.352;5.006;2023-09-07T04:36:09;101987.75;;;19.29;95.02
79703;BME280;69172;52.352;5.006;2023-09-07T04:38:35;101985.72;;;19.22;94.82
79703;BME280;69172;52.352;5.006;2023-09-07T04:41:10;101991.84;;;19.23;95.61
79703;BME280;69172;52.352;5.006;2023-09-07T04:43:37;101978.66;;;19.20;95.64
79703;BME280;69172;52.352;5.006;2023-09-07T04:46:06;101978.56;;;19.17;95.59
79703;BME280;69172;52.352;5.006;2023-09-07T04:48:32;101989.84;;;19.16;95.87
79703;BME280;69172;52.352;5.006;2023-09-07T04:51:04;101984.50;;;19.13;96.18
79703;BME280;69172;52.352;5.006;2023-09-07T04:53:32;101981.00;;;19.12;95.72
79703;BME280;69172;52.352;5.006;2023-09-07T04:55:58;101983.59;;;19.12;95.75
79703;BME280;69172;52.352;5.006;2023-09-07T04:58:24;101988.94;;;19.15;95.99
79703;BME280;69172;52.352;5.006;2023-09-07T05:00:50;101989.63;;;19.11;96.16
79703;BME280;69172;52.352;5.006;2023-09-07T05:03:16;101987.78;;;19.09;96.72
79703;BME280;69172;52.352;5.006;2023-09-07T05:05:41;101994.69;;;19.07;97.46
79703;BME280;69172;52.352;5.006;2023-09-07T05:08:07;101991.03;;;19.03;97.20
79703;BME280;69172;52.352;5.006;2023-09-07T05:10:33;101992.88;;;19.06;97.67
79703;BME280;69172;52.352;5.006;2023-09-07T05:12:59;101993.84;;;19.08;98.16
79703;BME280;69172;52.352;5.006;2023-09-07T05:15:25;101998.19;;;19.07;98.27
79703;BME280;69172;52.352;5.006;2023-09-07T05:17:51;101995.50;;;19.06;98.75
79703;BME280;69172;52.352;5.006;2023-09-07T05:20:18;102009.50;;;19.08;98.72
79703;BME280;69172;52.352;5.006;2023-09-07T05:22:43;102012.13;;;19.08;98.91
79703;BME280;69172;52.352;5.006;2023-09-07T05:25:09;102012.00;;;19.05;99.38
79703;BME280;69172;52.352;5.006;2023-09-07T05:27:35;102014.63;;;19.06;99.59
79703;BME280;69172;52.352;5.006;2023-09-07T05:30:04;102016.44;;;19.07;99.98
79703;BME280;69172;52.352;5.006;2023-09-07T05:32:30;102019.97;;;19.09;99.67
79703;BME280;69172;52.352;5.006;2023-09-07T05:34:55;102026.09;;;19.10;99.88
79703;BME280;69172;52.352;5.006;2023-09-07T05:37:21;102027.84;;;19.11;100.00
79703;BME280;69172;52.352;5.006;2023-09-07T05:39:47;102019.97;;;19.09;99.94
79703;BME280;69172;52.352;5.006;2023-09-07T05:42:12;102021.81;;;19.12;99.70
79703;BME280;69172;52.352;5.006;2023-09-07T05:44:38;102026.44;;;19.19;98.92
79703;BME280;69172;52.352;5.006;2023-09-07T05:47:04;102015.13;;;19.18;98.48
79703;BME280;69172;52.352;5.006;2023-09-07T05:49:29;102024.94;;;19.24;98.01
79703;BME280;69172;52.352;5.006;2023-09-07T05:51:55;102024.16;;;19.26;97.62
79703;BME280;69172;52.352;5.006;2023-09-07T05:54:20;102031.25;;;19.30;96.84
79703;BME280;69172;52.352;5.006;2023-09-07T05:56:46;102023.50;;;19.32;96.13
79703;BME280;69172;52.352;5.006;2023-09-07T05:59:11;102026.25;;;19.35;96.07
79703;BME280;69172;52.352;5.006;2023-09-07T06:01:36;102023.66;;;19.36;95.13
79703;BME280;69172;52.352;5.006;2023-09-07T06:04:03;102020.41;;;19.40;95.44
79703;BME280;69172;52.352;5.006;2023-09-07T06:06:29;102024.19;;;19.48;94.64
79703;BME280;69172;52.352;5.006;2023-09-07T06:08:54;102037.28;;;19.50;94.30
79703;BME280;69172;52.352;5.006;2023-09-07T06:11:20;102034.69;;;19.50;94.18
79703;BME280;69172;52.352;5.006;2023-09-07T06:13:45;102043.44;;;19.52;93.85
79703;BME280;69172;52.352;5.006;2023-09-07T06:16:12;102042.66;;;19.54;93.97
79703;BME280;69172;52.352;5.006;2023-09-07T06:18:37;102042.00;;;19.60;93.25
79703;BME280;69172;52.352;5.006;2023-09-07T06:21:03;102046.53;;;19.64;92.82
79703;BME280;69172;52.352;5.006;2023-09-07T06:23:29;102043.16;;;19.67;92.58
79703;BME280;69172;52.352;5.006;2023-09-07T06:25:55;102046.94;;;19.75;92.56
79703;BME280;69172;52.352;5.006;2023-09-07T06:28:20;102050.59;;;19.80;91.15
79703;BME280;69172;52.352;5.006;2023-09-07T06:30:46;102057.50;;;19.78;91.64
79703;BME280;69172;52.352;5.006;2023-09-07T06:33:11;102053.38;;;19.84;91.48
79703;BME280;69172;52.352;5.006;2023-09-07T06:35:37;102059.56;;;19.86;91.19
79703;BME280;69172;52.352;5.006;2023-09-07T06:38:03;102063.13;;;19.88;91.32
79703;BME280;69172;52.352;5.006;2023-09-07T06:40:28;102062.75;;;20.01;90.38
79703;BME280;69172;52.352;5.006;2023-09-07T06:42:54;102059.19;;;19.99;90.33
79703;BME280;69172;52.352;5.006;2023-09-07T06:45:19;102061.97;;;20.04;89.33
79703;BME280;69172;52.352;5.006;2023-09-07T06:47:46;102061.44;;;20.14;88.66
79703;BME280;69172;52.352;5.006;2023-09-07T06:50:14;102064.81;;;20.10;88.91
79703;BME280;69172;52.352;5.006;2023-09-07T06:52:39;102069.13;;;20.09;88.21
79703;BME280;69172;52.352;5.006;2023-09-07T06:55:04;102068.31;;;20.10;88.02
79703;BME280;69172;52.352;5.006;2023-09-07T06:57:31;102062.63;;;20.22;87.05
79703;BME280;69172;52.352;5.006;2023-09-07T06:59:56;102059.38;;;20.28;85.49
79703;BME280;69172;52.352;5.006;2023-09-07T07:02:22;102060.22;;;20.27;85.71
79703;BME280;69172;52.352;5.006;2023-09-07T07:04:47;102059.28;;;20.25;85.00
79703;BME280;69172;52.352;5.006;2023-09-07T07:07:12;102058.44;;;20.26;84.24
79703;BME280;69172;52.352;5.006;2023-09-07T07:09:38;102055.97;;;20.30;84.00
79703;BME280;69172;52.352;5.006;2023-09-07T07:12:03;102056.16;;;20.35;83.29
79703;BME280;69172;52.352;5.006;2023-09-07T07:14:29;102064.94;;;20.37;82.96
79703;BME280;69172;52.352;5.006;2023-09-07T07:16:54;102065.00;;;20.38;83.01
79703;BME280;69172;52.352;5.006;2023-09-07T07:19:20;102068.44;;;20.37;82.59
79703;BME280;69172;52.352;5.006;2023-09-07T07:21:45;102068.44;;;20.37;82.45
79703;BME280;69172;52.352;5.006;2023-09-07T07:24:11;102065.38;;;20.49;81.66
79703;BME280;69172;52.352;5.006;2023-09-07T07:26:36;102064.59;;;20.51;80.72
79703;BME280;69172;52.352;5.006;2023-09-07T07:29:02;102066.34;;;20.52;79.82
79703;BME280;69172;52.352;5.006;2023-09-07T07:31:28;102069.19;;;20.58;80.05
79703;BME280;69172;52.352;5.006;2023-09-07T07:33:55;102070.28;;;20.65;79.14
79703;BME280;69172;52.352;5.006;2023-09-07T07:36:20;102067.56;;;20.62;79.66
79703;BME280;69172;52.352;5.006;2023-09-07T07:38:46;102072.16;;;20.69;78.87
79703;BME280;69172;52.352;5.006;2023-09-07T07:41:11;102060.13;;;20.74;77.84
79703;BME280;69172;52.352;5.006;2023-09-07T07:43:37;102056.69;;;20.75;78.03
79703;BME280;69172;52.352;5.006;2023-09-07T07:46:03;102060.22;;;20.77;78.15
79703;BME280;69172;52.352;5.006;2023-09-07T07:48:29;102054.22;;;20.79;78.53
79703;BME280;69172;52.352;5.006;2023-09-07T07:50:55;102055.09;;;20.80;78.17
79703;BME280;69172;52.352;5.006;2023-09-07T07:53:20;102056.25;;;20.88;78.43
79703;BME280;69172;52.352;5.006;2023-09-07T07:55:46;102053.16;;;21.00;77.21
79703;BME280;69172;52.352;5.006;2023-09-07T07:58:11;102054.22;;;21.06;77.42
79703;BME280;69172;52.352;5.006;2023-09-07T08:00:37;102046.63;;;21.12;76.62
79703;BME280;69172;52.352;5.006;2023-09-07T08:03:03;102047.47;;;21.11;76.60
79703;BME280;69172;52.352;5.006;2023-09-07T08:05:34;102046.72;;;21.15;76.51
79703;BME280;69172;52.352;5.006;2023-09-07T08:08:00;102046.16;;;21.25;75.34
79703;BME280;69172;52.352;5.006;2023-09-07T08:10:26;102043.84;;;21.34;75.20
79703;BME280;69172;52.352;5.006;2023-09-07T08:12:55;102051.78;;;21.38;75.78
79703;BME280;69172;52.352;5.006;2023-09-07T08:15:21;102043.28;;;21.45;74.43
79703;BME280;69172;52.352;5.006;2023-09-07T08:17:48;102044.25;;;21.48;74.50
79703;BME280;69172;52.352;5.006;2023-09-07T08:20:14;102036.31;;;21.45;74.49
79703;BME280;69172;52.352;5.006;2023-09-07T08:22:39;102044.34;;;21.51;74.19
79703;BME280;69172;52.352;5.006;2023-09-07T08:25:09;102030.50;;;21.55;73.99
79703;BME280;69172;52.352;5.006;2023-09-07T08:27:34;102028.06;;;21.61;73.88
79703;BME280;69172;52.352;5.006;2023-09-07T08:30:00;102030.28;;;21.76;72.70
79703;BME280;69172;52.352;5.006;2023-09-07T08:32:25;102039.06;;;21.78;71.54
79703;BME280;69172;52.352;5.006;2023-09-07T08:34:50;102021.16;;;21.91;70.41
79703;BME280;69172;52.352;5.006;2023-09-07T08:37:21;102022.44;;;22.06;70.29
79703;BME280;69172;52.352;5.006;2023-09-07T08:39:47;102021.53;;;22.05;70.05
79703;BME280;69172;52.352;5.006;2023-09-07T08:42:12;102019.03;;;22.10;69.56
79703;BME280;69172;52.352;5.006;2023-09-07T08:44:39;102019.19;;;22.14;69.30
79703;BME280;69172;52.352;5.006;2023-09-07T08:47:07;102016.72;;;22.20;68.42
79703;BME280;69172;52.352;5.006;2023-09-07T08:49:33;102011.00;;;22.35;67.62
79703;BME280;69172;52.352;5.006;2023-09-07T08:52:00;102021.84;;;22.48;67.16
79703;BME280;69172;52.352;5.006;2023-09-07T08:54:26;102012.50;;;22.58;66.70
79703;BME280;69172;52.352;5.006;2023-09-07T08:56:52;102005.66;;;22.65;66.72
79703;BME280;69172;52.352;5.006;2023-09-07T08:59:17;102009.28;;;22.68;66.09
79703;BME280;69172;52.352;5.006;2023-09-07T09:01:43;102021.25;;;22.93;64.72
79703;BME280;69172;52.352;5.006;2023-09-07T09:04:08;102002.97;;;22.97;64.57
79703;BME280;69172;52.352;5.006;2023-09-07T09:06:33;102005.72;;;23.02;64.96
79703;BME280;69172;52.352;5.006;2023-09-07T09:08:59;102003.16;;;23.05;64.79
79703;BME280;69172;52.352;5.006;2023-09-07T09:11:26;102001.50;;;23.08;64.75
79703;BME280;69172;52.352;5.006;2023-09-07T09:13:53;101993.72;;;23.13;64.72
79703;BME280;69172;52.352;5.006;2023-09-07T09:16:20;101993.03;;;23.20;64.69
79703;BME280;69172;52.352;5.006;2023-09-07T09:21:27;101994.22;;;23.34;64.61
79703;BME280;69172;52.352;5.006;2023-09-07T09:23:55;101986.50;;;23.40;63.89
79703;BME280;69172;52.352;5.006;2023-09-07T09:26:21;101978.75;;;23.45;63.58
79703;BME280;69172;52.352;5.006;2023-09-07T09:28:48;101984.91;;;23.47;62.95
79703;BME280;69172;52.352;5.006;2023-09-07T09:31:16;101985.03;;;23.53;63.22
79703;BME280;69172;52.352;5.006;2023-09-07T09:33:42;101986.16;;;23.65;63.06
79703;BME280;69172;52.352;5.006;2023-09-07T09:36:12;101986.28;;;23.72;62.15
79703;BME280;69172;52.352;5.006;2023-09-07T09:38:38;101981.13;;;23.76;61.51
79703;BME280;69172;52.352;5.006;2023-09-07T09:41:06;101985.63;;;23.82;61.65
79703;BME280;69172;52.352;5.006;2023-09-07T09:43:33;101984.94;;;23.92;61.29
79703;BME280;69172;52.352;5.006;2023-09-07T09:45:59;101985.88;;;23.95;62.13
79703;BME280;69172;52.352;5.006;2023-09-07T09:48:27;101986.03;;;24.03;61.67
79703;BME280;69172;52.352;5.006;2023-09-07T09:50:52;101980.00;;;24.08;61.94
79703;BME280;69172;52.352;5.006;2023-09-07T09:53:19;101973.13;;;24.13;61.82
79703;BME280;69172;52.352;5.006;2023-09-07T09:55:47;101983.78;;;24.21;61.50
79703;BME280;69172;52.352;5.006;2023-09-07T09:58:13;101978.59;;;24.24;61.48
79703;BME280;69172;52.352;5.006;2023-09-07T10:00:45;101984.00;;;24.32;61.04
79703;BME280;69172;52.352;5.006;2023-09-07T10:03:24;101981.44;;;24.36;61.05
79703;BME280;69172;52.352;5.006;2023-09-07T10:05:52;101979.03;;;24.48;60.23
79703;BME280;69172;52.352;5.006;2023-09-07T10:08:19;101979.09;;;24.51;60.74
79703;BME280;69172;52.352;5.006;2023-09-07T10:10:48;101982.72;;;24.61;59.88
79703;BME280;69172;52.352;5.006;2023-09-07T10:13:14;101984.59;;;24.66;60.20
79703;BME280;69172;52.352;5.006;2023-09-07T10:15:40;101984.63;;;24.69;59.96
79703;BME280;69172;52.352;5.006;2023-09-07T10:18:15;101982.09;;;24.75;60.36
79703;BME280;69172;52.352;5.006;2023-09-07T10:20:50;101976.09;;;24.82;59.59
79703;BME280;69172;52.352;5.006;2023-09-07T10:23:16;101975.41;;;24.94;59.70
79703;BME280;69172;52.352;5.006;2023-09-07T10:25:41;101977.31;;;25.04;59.43
79703;BME280;69172;52.352;5.006;2023-09-07T10:28:21;101976.66;;;25.19;58.21
79703;BME280;69172;52.352;5.006;2023-09-07T10:31:01;101974.09;;;25.25;58.23
79703;BME280;69172;52.352;5.006;2023-09-07T10:33:29;101973.31;;;25.33;57.96
79703;BME280;69172;52.352;5.006;2023-09-07T10:35:54;101976.13;;;25.45;56.53
79703;BME280;69172;52.352;5.006;2023-09-07T10:38:20;101961.31;;;25.52;56.67
79703;BME280;69172;52.352;5.006;2023-09-07T10:40:47;101972.00;;;25.63;55.34
79703;BME280;69172;52.352;5.006;2023-09-07T10:43:12;101972.09;;;25.72;55.51
79703;BME280;69172;52.352;5.006;2023-09-07T10:45:37;101975.66;;;25.75;55.73
79703;BME280;69172;52.352;5.006;2023-09-07T10:48:03;101972.22;;;25.81;54.45
79703;BME280;69172;52.352;5.006;2023-09-07T10:50:45;101964.50;;;25.97;54.02
79703;BME280;69172;52.352;5.006;2023-09-07T10:53:12;101966.38;;;26.12;53.47
79703;BME280;69172;52.352;5.006;2023-09-07T10:55:39;101967.38;;;26.20;53.23
79703;BME280;69172;52.352;5.006;2023-09-07T10:58:06;101957.78;;;26.28;52.69
79703;BME280;69172;52.352;5.006;2023-09-07T11:00:32;101959.59;;;26.34;53.15
79703;BME280;69172;52.352;5.006;2023-09-07T11:02:58;101956.13;;;26.39;51.87
79703;BME280;69172;52.352;5.006;2023-09-07T11:05:24;101959.78;;;26.53;51.36
79703;BME280;69172;52.352;5.006;2023-09-07T11:07:49;101952.84;;;26.68;51.56
79703;BME280;69172;52.352;5.006;2023-09-07T11:10:16;101952.88;;;26.72;51.53
79703;BME280;69172;52.352;5.006;2023-09-07T11:12:41;101954.75;;;26.84;51.14
79703;BME280;69172;52.352;5.006;2023-09-07T11:15:10;101948.69;;;26.98;50.30
79703;BME280;69172;52.352;5.006;2023-09-07T11:17:38;101951.34;;;26.98;50.65
79703;BME280;69172;52.352;5.006;2023-09-07T11:20:07;101944.38;;;27.09;49.90
79703;BME280;69172;52.352;5.006;2023-09-07T11:22:33;101944.38;;;27.15;49.93
79703;BME280;69172;52.352;5.006;2023-09-07T11:25:02;101942.69;;;27.30;48.51
79703;BME280;69172;52.352;5.006;2023-09-07T11:27:34;101933.03;;;27.38;49.14
79703;BME280;69172;52.352;5.006;2023-09-07T11:30:00;101926.91;;;27.40;48.75
79703;BME280;69172;52.352;5.006;2023-09-07T11:32:33;101929.59;;;27.48;48.80
79703;BME280;69172;52.352;5.006;2023-09-07T11:34:59;101931.41;;;27.61;48.63
79703;BME280;69172;52.352;5.006;2023-09-07T11:37:25;101921.72;;;27.64;48.05
79703;BME280;69172;52.352;5.006;2023-09-07T11:39:51;101927.91;;;27.68;47.67
79703;BME280;69172;52.352;5.006;2023-09-07T11:42:18;101914.72;;;27.74;47.85
79703;BME280;69172;52.352;5.006;2023-09-07T11:44:43;101920.00;;;27.82;50.02
79703;BME280;69172;52.352;5.006;2023-09-07T11:47:08;101915.56;;;27.73;51.69
79703;BME280;69172;52.352;5.006;2023-09-07T11:49:34;101926.13;;;27.67;53.21
79703;BME280;69172;52.352;5.006;2023-09-07T11:52:00;101933.97;;;27.43;55.97
79703;BME280;69172;52.352;5.006;2023-09-07T11:54:25;101922.50;;;27.42;57.61
79703;BME280;69172;52.352;5.006;2023-09-07T11:56:51;101927.78;;;27.42;57.71
79703;BME280;69172;52.352;5.006;2023-09-07T11:59:17;101926.06;;;27.46;57.77
79703;BME280;69172;52.352;5.006;2023-09-07T12:01:43;101921.66;;;27.42;56.89
79703;BME280;69172;52.352;5.006;2023-09-07T12:04:09;101919.00;;;27.43;57.49
79703;BME280;69172;52.352;5.006;2023-09-07T12:06:35;101915.41;;;27.32;57.26
79703;BME280;69172;52.352;5.006;2023-09-07T12:09:04;101911.00;;;27.34;58.08
79703;BME280;69172;52.352;5.006;2023-09-07T12:11:30;101911.94;;;27.42;57.68
79703;BME280;69172;52.352;5.006;2023-09-07T12:13:59;101911.97;;;27.45;57.52
79703;BME280;69172;52.352;5.006;2023-09-07T12:16:28;101903.97;;;27.38;56.16
79703;BME280;69172;52.352;5.006;2023-09-07T12:18:53;101911.03;;;27.39;57.00
79703;BME280;69172;52.352;5.006;2023-09-07T12:21:19;101918.84;;;27.16;58.91
79703;BME280;69172;52.352;5.006;2023-09-07T12:23:45;101914.38;;;27.03;59.33
79703;BME280;69172;52.352;5.006;2023-09-07T12:26:12;101910.81;;;26.95;58.82
79703;BME280;69172;52.352;5.006;2023-09-07T12:28:38;101908.22;;;27.02;60.00
79703;BME280;69172;52.352;5.006;2023-09-07T12:31:03;101912.66;;;27.08;59.98
79703;BME280;69172;52.352;5.006;2023-09-07T12:33:30;101911.69;;;26.92;59.81
79703;BME280;69172;52.352;5.006;2023-09-07T12:35:55;101903.63;;;26.71;59.50
79703;BME280;69172;52.352;5.006;2023-09-07T12:38:21;101904.47;;;26.72;59.90
79703;BME280;69172;52.352;5.006;2023-09-07T12:40:49;101901.81;;;26.72;61.07
79703;BME280;69172;52.352;5.006;2023-09-07T12:43:15;101903.59;;;26.70;61.73
79703;BME280;69172;52.352;5.006;2023-09-07T12:45:40;101898.22;;;26.56;62.62
79703;BME280;69172;52.352;5.006;2023-09-07T12:48:06;101894.69;;;26.52;60.41
79703;BME280;69172;52.352;5.006;2023-09-07T12:50:32;101895.50;;;26.45;60.79
79703;BME280;69172;52.352;5.006;2023-09-07T12:52:57;101890.25;;;26.47;60.40